< < Back
Terminal Aerodrome Forecast


Current Version              Previous Versions:   1  2  3  4  5  6  7  8  9  

Terminal Aerodrome Forecast

333
FTUS42 KGSP 260540
TAFAVL
TAF
KAVL 260540Z 2606/2706 VRB03KT P6SM -RA OVC050
     FM260800 32006KT 4SM -RA OVC027
     FM261000 32007KT 3SM -RASN BR OVC014
      TEMPO 2610/2612 2SM RASN SCT007 OVC012
     FM261600 31008KT P6SM OVC045
     FM262300 32004KT P6SM BKN060=



Latest METAR

272
SAUS70 KWBC 261200 RRH
MTRAVL
METAR KAVL 261154Z 34007KT 5SM -RA BR FEW013 SCT029 OVC036 04/03 A2997
RMK AO2 SLP146 P0007 60038 70041 T00440028 10067 20044
53007


USA.gov is the U.S. government's official web portal to all federal, state and local government web resources and services.